sensor_id;sensor_type;location;lat;lon;timestamp;pressure;altitude;pressure_sealevel;temperature;humidity
75317;BME280;63913;51.492;10.368;2022-12-18T00:01:44;99774.13;;;-8.04;78.44
75317;BME280;63913;51.492;10.368;2022-12-18T00:04:29;99769.34;;;-8.17;78.65
75317;BME280;63913;51.492;10.368;2022-12-18T00:06:54;99767.03;;;-8.16;78.49
75317;BME280;63913;51.492;10.368;2022-12-18T00:09:20;99764.34;;;-8.17;78.81
75317;BME280;63913;51.492;10.368;2022-12-18T00:11:45;99769.50;;;-8.16;79.13
75317;BME280;63913;51.492;10.368;2022-12-18T00:14:12;99770.03;;;-8.18;78.91
75317;BME280;63913;51.492;10.368;2022-12-18T00:16:38;99778.59;;;-8.16;78.72
75317;BME280;63913;51.492;10.368;2022-12-18T00:19:04;99784.13;;;-8.12;79.04
75317;BME280;63913;51.492;10.368;2022-12-18T00:21:32;99782.16;;;-8.14;79.08
75317;BME280;63913;51.492;10.368;2022-12-18T00:23:58;99785.38;;;-8.15;79.21
75317;BME280;63913;51.492;10.368;2022-12-18T00:26:26;99783.94;;;-8.13;79.40
75317;BME280;63913;51.492;10.368;2022-12-18T00:28:52;99790.72;;;-8.12;79.05
75317;BME280;63913;51.492;10.368;2022-12-18T00:31:22;99792.31;;;-8.13;79.07
75317;BME280;63913;51.492;10.368;2022-12-18T00:33:48;99788.03;;;-8.14;78.97
75317;BME280;63913;51.492;10.368;2022-12-18T00:36:19;99786.25;;;-8.15;78.31
75317;BME280;63913;51.492;10.368;2022-12-18T00:38:45;99781.97;;;-8.16;78.27
75317;BME280;63913;51.492;10.368;2022-12-18T00:41:12;99783.25;;;-8.19;78.84
75317;BME280;63913;51.492;10.368;2022-12-18T00:43:38;99781.09;;;-8.16;79.23
75317;BME280;63913;51.492;10.368;2022-12-18T00:46:04;99775.03;;;-8.11;80.39
75317;BME280;63913;51.492;10.368;2022-12-18T00:48:30;99785.34;;;-8.01;80.90
75317;BME280;63913;51.492;10.368;2022-12-18T00:50:55;99790.00;;;-8.04;80.08
75317;BME280;63913;51.492;10.368;2022-12-18T00:53:21;99784.63;;;-8.07;79.23
75317;BME280;63913;51.492;10.368;2022-12-18T00:55:46;99803.53;;;-8.09;78.91
75317;BME280;63913;51.492;10.368;2022-12-18T00:58:14;99801.22;;;-8.07;79.21
75317;BME280;63913;51.492;10.368;2022-12-18T01:00:40;99799.06;;;-8.04;79.47
75317;BME280;63913;51.492;10.368;2022-12-18T01:03:06;99807.47;;;-8.04;78.70
75317;BME280;63913;51.492;10.368;2022-12-18T01:05:32;99806.41;;;-8.13;78.37
75317;BME280;63913;51.492;10.368;2022-12-18T01:07:58;99806.75;;;-8.17;78.31
75317;BME280;63913;51.492;10.368;2022-12-18T01:10:24;99803.03;;;-8.21;77.56
75317;BME280;63913;51.492;10.368;2022-12-18T01:12:49;99799.84;;;-8.34;77.56
75317;BME280;63913;51.492;10.368;2022-12-18T01:15:15;99798.97;;;-8.34;78.11
75317;BME280;63913;51.492;10.368;2022-12-18T01:17:41;99807.16;;;-8.42;78.73
75317;BME280;63913;51.492;10.368;2022-12-18T01:20:08;99808.06;;;-8.42;78.94
75317;BME280;63913;51.492;10.368;2022-12-18T01:22:34;99806.63;;;-8.40;79.09
75317;BME280;63913;51.492;10.368;2022-12-18T01:25:00;99801.84;;;-8.38;79.60
75317;BME280;63913;51.492;10.368;2022-12-18T01:27:25;99811.59;;;-8.33;79.32
75317;BME280;63913;51.492;10.368;2022-12-18T01:29:50;99805.34;;;-8.29;79.24
75317;BME280;63913;51.492;10.368;2022-12-18T01:32:16;99803.25;;;-8.33;78.18
75317;BME280;63913;51.492;10.368;2022-12-18T01:34:41;99810.91;;;-8.39;77.46
75317;BME280;63913;51.492;10.368;2022-12-18T01:37:06;99816.09;;;-8.44;77.08
75317;BME280;63913;51.492;10.368;2022-12-18T01:39:32;99803.44;;;-8.53;77.33
75317;BME280;63913;51.492;10.368;2022-12-18T01:41:59;99807.34;;;-8.55;77.86
75317;BME280;63913;51.492;10.368;2022-12-18T01:44:58;99812.34;;;-8.48;79.17
75317;BME280;63913;51.492;10.368;2022-12-18T01:47:55;99812.88;;;-8.43;79.72
75317;BME280;63913;51.492;10.368;2022-12-18T01:50:24;99814.28;;;-8.38;79.83
75317;BME280;63913;51.492;10.368;2022-12-18T01:52:54;99818.75;;;-8.36;79.61
75317;BME280;63913;51.492;10.368;2022-12-18T01:55:22;99813.53;;;-8.30;79.75
75317;BME280;63913;51.492;10.368;2022-12-18T01:57:50;99811.22;;;-8.29;79.10
75317;BME280;63913;51.492;10.368;2022-12-18T02:00:20;99812.84;;;-8.29;78.40
75317;BME280;63913;51.492;10.368;2022-12-18T02:02:46;99803.41;;;-8.32;77.42
75317;BME280;63913;51.492;10.368;2022-12-18T02:05:15;99811.09;;;-8.37;77.51
75317;BME280;63913;51.492;10.368;2022-12-18T02:10:23;99807.91;;;-8.43;78.10
75317;BME280;63913;51.492;10.368;2022-12-18T02:13:25;99810.22;;;-8.45;77.82
75317;BME280;63913;51.492;10.368;2022-12-18T02:16:09;99805.03;;;-8.46;77.71
75317;BME280;63913;51.492;10.368;2022-12-18T02:18:42;99803.25;;;-8.48;77.50
75317;BME280;63913;51.492;10.368;2022-12-18T02:23:58;99798.81;;;-8.57;77.65
75317;BME280;63913;51.492;10.368;2022-12-18T02:26:49;99807.16;;;-8.57;78.35
75317;BME280;63913;51.492;10.368;2022-12-18T02:29:50;99812.53;;;-8.54;79.64
75317;BME280;63913;51.492;10.368;2022-12-18T02:32:28;99815.34;;;-8.51;80.05
75317;BME280;63913;51.492;10.368;2022-12-18T02:34:56;99810.91;;;-8.46;81.18
75317;BME280;63913;51.492;10.368;2022-12-18T02:37:25;99808.41;;;-8.39;81.79
75317;BME280;63913;51.492;10.368;2022-12-18T02:39:54;99809.69;;;-8.35;82.02
75317;BME280;63913;51.492;10.368;2022-12-18T02:42:22;99798.94;;;-8.27;81.65
75317;BME280;63913;51.492;10.368;2022-12-18T02:44:50;99794.47;;;-8.23;81.78
75317;BME280;63913;51.492;10.368;2022-12-18T02:47:22;99797.47;;;-8.18;81.90
75317;BME280;63913;51.492;10.368;2022-12-18T02:52:31;99790.19;;;-8.17;81.30
75317;BME280;63913;51.492;10.368;2022-12-18T03:01:13;99807.47;;;-8.18;80.50
75317;BME280;63913;51.492;10.368;2022-12-18T03:06:23;99801.25;;;-8.22;79.91
75317;BME280;63913;51.492;10.368;2022-12-18T03:08:54;99809.63;;;-8.21;81.68
75317;BME280;63913;51.492;10.368;2022-12-18T03:11:21;99813.19;;;-8.19;82.70
75317;BME280;63913;51.492;10.368;2022-12-18T03:14:07;99806.03;;;-8.16;83.26
75317;BME280;63913;51.492;10.368;2022-12-18T03:16:33;99808.00;;;-8.14;83.71
75317;BME280;63913;51.492;10.368;2022-12-18T03:19:07;99814.97;;;-8.11;83.64
75317;BME280;63913;51.492;10.368;2022-12-18T03:21:41;99818.66;;;-8.07;83.00
75317;BME280;63913;51.492;10.368;2022-12-18T03:24:08;99821.00;;;-8.16;81.34
75317;BME280;63913;51.492;10.368;2022-12-18T03:26:35;99820.09;;;-8.17;81.51
75317;BME280;63913;51.492;10.368;2022-12-18T03:29:12;99821.91;;;-8.16;80.78
75317;BME280;63913;51.492;10.368;2022-12-18T03:31:42;99821.91;;;-8.23;79.59
75317;BME280;63913;51.492;10.368;2022-12-18T03:34:15;99820.66;;;-8.26;79.03
75317;BME280;63913;51.492;10.368;2022-12-18T03:36:43;99813.41;;;-8.39;78.64
75317;BME280;63913;51.492;10.368;2022-12-18T03:39:08;99799.53;;;-8.44;78.53
75317;BME280;63913;51.492;10.368;2022-12-18T03:41:47;99794.19;;;-8.54;78.34
75317;BME280;63913;51.492;10.368;2022-12-18T03:46:58;99799.16;;;-8.54;80.24
75317;BME280;63913;51.492;10.368;2022-12-18T03:52:25;99786.00;;;-8.60;78.41
75317;BME280;63913;51.492;10.368;2022-12-18T03:54:52;99784.94;;;-8.62;78.39
75317;BME280;63913;51.492;10.368;2022-12-18T03:57:22;99786.00;;;-8.67;77.71
75317;BME280;63913;51.492;10.368;2022-12-18T03:59:51;99794.00;;;-8.70;77.83
75317;BME280;63913;51.492;10.368;2022-12-18T04:02:18;99801.66;;;-8.75;77.70
75317;BME280;63913;51.492;10.368;2022-12-18T04:04:44;99805.56;;;-8.77;78.29
75317;BME280;63913;51.492;10.368;2022-12-18T04:07:12;99805.56;;;-8.70;80.44
75317;BME280;63913;51.492;10.368;2022-12-18T04:09:39;99794.00;;;-8.70;80.75
75317;BME280;63913;51.492;10.368;2022-12-18T04:12:06;99795.78;;;-8.69;80.42
75317;BME280;63913;51.492;10.368;2022-12-18T04:14:31;99805.75;;;-8.69;80.36
75317;BME280;63913;51.492;10.368;2022-12-18T04:17:01;99799.19;;;-8.68;80.27
75317;BME280;63913;51.492;10.368;2022-12-18T04:19:26;99802.19;;;-8.64;80.06
75317;BME280;63913;51.492;10.368;2022-12-18T04:21:51;99792.59;;;-8.68;79.69
75317;BME280;63913;51.492;10.368;2022-12-18T04:24:17;99797.03;;;-8.65;80.48
75317;BME280;63913;51.492;10.368;2022-12-18T04:26:42;99803.28;;;-8.62;80.81
75317;BME280;63913;51.492;10.368;2022-12-18T04:29:07;99807.34;;;-8.62;80.43
75317;BME280;63913;51.492;10.368;2022-12-18T04:31:32;99804.31;;;-8.67;79.87
75317;BME280;63913;51.492;10.368;2022-12-18T04:33:58;99803.44;;;-8.67;79.19
75317;BME280;63913;51.492;10.368;2022-12-18T04:36:23;99812.16;;;-8.71;79.17
75317;BME280;63913;51.492;10.368;2022-12-18T04:38:48;99810.38;;;-8.79;78.24
75317;BME280;63913;51.492;10.368;2022-12-18T04:41:14;99818.75;;;-8.78;78.08
75317;BME280;63913;51.492;10.368;2022-12-18T04:43:39;99802.91;;;-8.79;78.98
75317;BME280;63913;51.492;10.368;2022-12-18T04:46:06;99804.31;;;-8.74;80.62
75317;BME280;63913;51.492;10.368;2022-12-18T04:48:32;99811.09;;;-8.66;80.43
75317;BME280;63913;51.492;10.368;2022-12-18T04:50:57;99817.16;;;-8.64;80.79
75317;BME280;63913;51.492;10.368;2022-12-18T04:53:23;99821.78;;;-8.60;80.37
75317;BME280;63913;51.492;10.368;2022-12-18T04:55:48;99820.72;;;-8.62;79.73
75317;BME280;63913;51.492;10.368;2022-12-18T04:58:13;99829.97;;;-8.68;77.86
75317;BME280;63913;51.492;10.368;2022-12-18T05:00:39;99830.50;;;-8.77;77.23
75317;BME280;63913;51.492;10.368;2022-12-18T05:03:04;99831.91;;;-8.87;77.97
75317;BME280;63913;51.492;10.368;2022-12-18T05:05:30;99822.47;;;-8.82;78.46
75317;BME280;63913;51.492;10.368;2022-12-18T05:07:55;99815.69;;;-8.83;78.46
75317;BME280;63913;51.492;10.368;2022-12-18T05:10:20;99821.56;;;-8.82;78.16
75317;BME280;63913;51.492;10.368;2022-12-18T05:12:46;99816.25;;;-8.85;78.89
75317;BME280;63913;51.492;10.368;2022-12-18T05:15:27;99813.38;;;-8.89;78.05
75317;BME280;63913;51.492;10.368;2022-12-18T05:17:52;99829.03;;;-8.90;78.19
75317;BME280;63913;51.492;10.368;2022-12-18T05:20:18;99835.09;;;-8.88;78.02
75317;BME280;63913;51.492;10.368;2022-12-18T05:22:43;99839.00;;;-8.90;77.99
75317;BME280;63913;51.492;10.368;2022-12-18T05:25:09;99840.25;;;-8.93;77.90
75317;BME280;63913;51.492;10.368;2022-12-18T05:27:34;99848.25;;;-8.96;77.34
75317;BME280;63913;51.492;10.368;2022-12-18T05:29:59;99839.88;;;-8.96;77.32
75317;BME280;63913;51.492;10.368;2022-12-18T05:32:24;99842.75;;;-9.00;77.69
75317;BME280;63913;51.492;10.368;2022-12-18T05:34:50;99840.25;;;-9.00;77.93
75317;BME280;63913;51.492;10.368;2022-12-18T05:37:15;99843.78;;;-8.98;78.23
75317;BME280;63913;51.492;10.368;2022-12-18T05:39:42;99832.41;;;-8.96;78.47
75317;BME280;63913;51.492;10.368;2022-12-18T05:42:08;99842.00;;;-8.99;77.25
75317;BME280;63913;51.492;10.368;2022-12-18T05:44:33;99830.81;;;-9.03;77.22
75317;BME280;63913;51.492;10.368;2022-12-18T05:46:59;99830.25;;;-9.07;78.13
75317;BME280;63913;51.492;10.368;2022-12-18T05:49:24;99826.88;;;-9.08;78.54
75317;BME280;63913;51.492;10.368;2022-12-18T05:51:49;99830.81;;;-9.03;79.37
75317;BME280;63913;51.492;10.368;2022-12-18T05:54:14;99829.72;;;-8.98;79.35
75317;BME280;63913;51.492;10.368;2022-12-18T05:56:40;99833.81;;;-8.98;78.26
75317;BME280;63913;51.492;10.368;2022-12-18T05:59:05;99837.75;;;-9.00;77.23
75317;BME280;63913;51.492;10.368;2022-12-18T06:01:30;99850.72;;;-9.03;77.18
75317;BME280;63913;51.492;10.368;2022-12-18T06:03:56;99861.00;;;-9.07;76.74
75317;BME280;63913;51.492;10.368;2022-12-18T06:06:23;99859.97;;;-9.09;76.62
75317;BME280;63913;51.492;10.368;2022-12-18T06:08:50;99854.81;;;-9.10;76.60
75317;BME280;63913;51.492;10.368;2022-12-18T06:11:18;99860.47;;;-9.18;76.76
75317;BME280;63913;51.492;10.368;2022-12-18T06:13:44;99861.88;;;-9.20;76.08
75317;BME280;63913;51.492;10.368;2022-12-18T06:16:09;99861.84;;;-9.28;76.01
75317;BME280;63913;51.492;10.368;2022-12-18T06:18:35;99862.16;;;-9.32;76.02
75317;BME280;63913;51.492;10.368;2022-12-18T06:21:00;99851.50;;;-9.38;76.63
75317;BME280;63913;51.492;10.368;2022-12-18T06:23:26;99849.00;;;-9.38;76.36
75317;BME280;63913;51.492;10.368;2022-12-18T06:25:52;99851.16;;;-9.41;76.42
75317;BME280;63913;51.492;10.368;2022-12-18T06:28:18;99844.38;;;-9.42;76.58
75317;BME280;63913;51.492;10.368;2022-12-18T06:30:44;99842.78;;;-9.41;76.67
75317;BME280;63913;51.492;10.368;2022-12-18T06:33:10;99852.16;;;-9.46;76.50
75317;BME280;63913;51.492;10.368;2022-12-18T06:35:35;99843.09;;;-9.45;77.66
75317;BME280;63913;51.492;10.368;2022-12-18T06:38:01;99854.53;;;-9.40;78.32
75317;BME280;63913;51.492;10.368;2022-12-18T06:40:27;99859.16;;;-9.36;78.71
75317;BME280;63913;51.492;10.368;2022-12-18T06:42:52;99852.22;;;-9.32;79.10
75317;BME280;63913;51.492;10.368;2022-12-18T06:45:17;99855.97;;;-9.28;78.24
75317;BME280;63913;51.492;10.368;2022-12-18T06:47:43;99856.88;;;-9.28;78.41
75317;BME280;63913;51.492;10.368;2022-12-18T06:50:08;99854.91;;;-9.30;77.84
75317;BME280;63913;51.492;10.368;2022-12-18T06:52:34;99857.41;;;-9.23;78.94
75317;BME280;63913;51.492;10.368;2022-12-18T06:54:59;99852.44;;;-9.23;78.38
75317;BME280;63913;51.492;10.368;2022-12-18T06:57:25;99850.13;;;-9.21;78.99
75317;BME280;63913;51.492;10.368;2022-12-18T06:59:50;99853.69;;;-9.19;79.20
75317;BME280;63913;51.492;10.368;2022-12-18T07:02:15;99850.69;;;-9.17;79.03
75317;BME280;63913;51.492;10.368;2022-12-18T07:04:41;99858.88;;;-9.18;77.29
75317;BME280;63913;51.492;10.368;2022-12-18T07:07:06;99857.78;;;-9.20;76.45
75317;BME280;63913;51.492;10.368;2022-12-18T07:09:32;99855.09;;;-9.29;76.16
75317;BME280;63913;51.492;10.368;2022-12-18T07:11:57;99854.69;;;-9.39;76.56
75317;BME280;63913;51.492;10.368;2022-12-18T07:14:22;99864.63;;;-9.39;76.74
75317;BME280;63913;51.492;10.368;2022-12-18T07:16:47;99859.50;;;-9.40;76.37
75317;BME280;63913;51.492;10.368;2022-12-18T07:19:13;99851.66;;;-9.43;76.77
75317;BME280;63913;51.492;10.368;2022-12-18T07:21:38;99860.88;;;-9.49;77.08
75317;BME280;63913;51.492;10.368;2022-12-18T07:24:04;99868.50;;;-9.48;77.01
75317;BME280;63913;51.492;10.368;2022-12-18T07:26:29;99868.69;;;-9.46;76.43
75317;BME280;63913;51.492;10.368;2022-12-18T07:28:57;99887.91;;;-9.45;76.10
75317;BME280;63913;51.492;10.368;2022-12-18T07:31:23;99889.31;;;-9.47;76.83
75317;BME280;63913;51.492;10.368;2022-12-18T07:33:49;99893.97;;;-9.43;77.18
75317;BME280;63913;51.492;10.368;2022-12-18T07:36:15;99889.38;;;-9.40;77.43
75317;BME280;63913;51.492;10.368;2022-12-18T07:38:40;99894.50;;;-9.39;77.45
75317;BME280;63913;51.492;10.368;2022-12-18T07:41:09;99908.03;;;-9.37;77.54
75317;BME280;63913;51.492;10.368;2022-12-18T07:43:35;99913.91;;;-9.36;77.22
75317;BME280;63913;51.492;10.368;2022-12-18T07:46:01;99917.47;;;-9.34;77.14
75317;BME280;63913;51.492;10.368;2022-12-18T07:48:27;99927.56;;;-9.40;76.75
75317;BME280;63913;51.492;10.368;2022-12-18T07:50:53;99927.94;;;-9.37;76.35
75317;BME280;63913;51.492;10.368;2022-12-18T07:53:18;99923.31;;;-9.41;76.47
75317;BME280;63913;51.492;10.368;2022-12-18T07:55:43;99936.66;;;-9.40;76.29
75317;BME280;63913;51.492;10.368;2022-12-18T07:58:08;99938.59;;;-9.38;76.78
75317;BME280;63913;51.492;10.368;2022-12-18T08:00:34;99946.78;;;-9.39;77.17
75317;BME280;63913;51.492;10.368;2022-12-18T08:03:00;99938.09;;;-9.35;77.05
75317;BME280;63913;51.492;10.368;2022-12-18T08:17:09;99910.75;;;-9.28;77.55
75317;BME280;63913;51.492;10.368;2022-12-18T08:19:34;99904.00;;;-9.22;77.88
75317;BME280;63913;51.492;10.368;2022-12-18T08:21:59;99895.50;;;-9.17;78.52
75317;BME280;63913;51.492;10.368;2022-12-18T08:24:25;99892.47;;;-9.14;78.81
75317;BME280;63913;51.492;10.368;2022-12-18T08:26:50;99896.44;;;-9.09;78.96
75317;BME280;63913;51.492;10.368;2022-12-18T08:29:16;99881.84;;;-9.06;78.53
75317;BME280;63913;51.492;10.368;2022-12-18T08:31:41;99883.28;;;-9.01;78.38
75317;BME280;63913;51.492;10.368;2022-12-18T08:34:07;99871.19;;;-8.98;78.39
75317;BME280;63913;51.492;10.368;2022-12-18T08:36:33;99875.13;;;-8.93;79.60
75317;BME280;63913;51.492;10.368;2022-12-18T08:38:58;99869.97;;;-8.88;79.87
75317;BME280;63913;51.492;10.368;2022-12-18T08:41:23;99871.41;;;-8.82;80.27
75317;BME280;63913;51.492;10.368;2022-12-18T08:43:49;99846.66;;;-8.74;80.73
75317;BME280;63913;51.492;10.368;2022-12-18T08:46:36;99841.69;;;-8.74;80.74
75317;BME280;63913;51.492;10.368;2022-12-18T08:49:03;99843.47;;;-8.66;80.64
75317;BME280;63913;51.492;10.368;2022-12-18T08:51:29;99851.31;;;-8.63;81.71
75317;BME280;63913;51.492;10.368;2022-12-18T08:53:54;99852.03;;;-8.57;81.53
75317;BME280;63913;51.492;10.368;2022-12-18T08:56:19;99849.72;;;-8.55;81.16
75317;BME280;63913;51.492;10.368;2022-12-18T08:58:45;99849.53;;;-8.57;81.68
75317;BME280;63913;51.492;10.368;2022-12-18T09:01:11;99857.72;;;-8.51;81.71
75317;BME280;63913;51.492;10.368;2022-12-18T09:03:37;99845.81;;;-8.46;81.25
75317;BME280;63913;51.492;10.368;2022-12-18T09:06:03;99840.13;;;-8.38;81.77
75317;BME280;63913;51.492;10.368;2022-12-18T09:08:29;99834.75;;;-8.34;81.50
75317;BME280;63913;51.492;10.368;2022-12-18T09:10:54;99839.00;;;-8.26;81.92
75317;BME280;63913;51.492;10.368;2022-12-18T09:13:20;99847.91;;;-8.21;82.34
75317;BME280;63913;51.492;10.368;2022-12-18T09:15:51;99837.03;;;-8.14;82.15
75317;BME280;63913;51.492;10.368;2022-12-18T09:18:19;99834.03;;;-8.12;82.03
75317;BME280;63913;51.492;10.368;2022-12-18T09:20:44;99830.25;;;-8.08;82.04
75317;BME280;63913;51.492;10.368;2022-12-18T09:23:10;99832.19;;;-7.98;81.83
75317;BME280;63913;51.492;10.368;2022-12-18T09:25:36;99821.69;;;-7.96;81.75
75317;BME280;63913;51.492;10.368;2022-12-18T09:28:06;99830.75;;;-7.89;82.09
75317;BME280;63913;51.492;10.368;2022-12-18T09:30:32;99828.78;;;-7.85;81.96
75317;BME280;63913;51.492;10.368;2022-12-18T09:32:59;99825.41;;;-7.78;82.34
75317;BME280;63913;51.492;10.368;2022-12-18T09:35:25;99826.63;;;-7.75;82.00
75317;BME280;63913;51.492;10.368;2022-12-18T09:37:50;99826.97;;;-7.72;81.71
75317;BME280;63913;51.492;10.368;2022-12-18T09:40:18;99829.28;;;-7.66;82.09
75317;BME280;63913;51.492;10.368;2022-12-18T09:42:47;99824.78;;;-7.61;81.96
75317;BME280;63913;51.492;10.368;2022-12-18T09:45:14;99819.06;;;-7.60;82.02
75317;BME280;63913;51.492;10.368;2022-12-18T09:47:42;99819.78;;;-7.54;81.93
75317;BME280;63913;51.492;10.368;2022-12-18T09:52:52;99820.97;;;-7.44;81.82
75317;BME280;63913;51.492;10.368;2022-12-18T09:55:25;99825.22;;;-7.36;81.78
75317;BME280;63913;51.492;10.368;2022-12-18T09:58:02;99814.16;;;-7.30;82.11
75317;BME280;63913;51.492;10.368;2022-12-18T10:00:31;99815.31;;;-7.20;82.46
75317;BME280;63913;51.492;10.368;2022-12-18T10:03:01;99814.94;;;-7.09;82.28
75317;BME280;63913;51.492;10.368;2022-12-18T10:08:00;99827.50;;;-6.93;81.71
75317;BME280;63913;51.492;10.368;2022-12-18T10:21:22;99855.69;;;-6.64;81.23
75317;BME280;63913;51.492;10.368;2022-12-18T10:23:57;99852.28;;;-6.58;80.96
75317;BME280;63913;51.492;10.368;2022-12-18T10:26:27;99847.59;;;-6.55;80.96
75317;BME280;63913;51.492;10.368;2022-12-18T10:28:52;99846.50;;;-6.49;80.89
75317;BME280;63913;51.492;10.368;2022-12-18T10:31:21;99846.81;;;-6.46;80.70
75317;BME280;63913;51.492;10.368;2022-12-18T10:33:47;99849.44;;;-6.38;80.64
75317;BME280;63913;51.492;10.368;2022-12-18T10:36:12;99848.72;;;-6.37;80.43
75317;BME280;63913;51.492;10.368;2022-12-18T10:38:38;99840.84;;;-6.33;80.55
75317;BME280;63913;51.492;10.368;2022-12-18T10:41:24;99841.72;;;-6.32;80.67
75317;BME280;63913;51.492;10.368;2022-12-18T10:44:17;99834.72;;;-6.28;80.52
75317;BME280;63913;51.492;10.368;2022-12-18T10:46:44;99814.88;;;-6.26;80.62
75317;BME280;63913;51.492;10.368;2022-12-18T10:49:23;99816.66;;;-6.25;80.43
75317;BME280;63913;51.492;10.368;2022-12-18T10:51:51;99817.13;;;-6.21;80.22
75317;BME280;63913;51.492;10.368;2022-12-18T10:54:22;99817.13;;;-6.21;80.27
75317;BME280;63913;51.492;10.368;2022-12-18T10:56:48;99814.78;;;-6.19;80.38
75317;BME280;63913;51.492;10.368;2022-12-18T10:59:15;99814.63;;;-6.21;80.60
75317;BME280;63913;51.492;10.368;2022-12-18T11:01:55;99814.97;;;-6.18;80.44
75317;BME280;63913;51.492;10.368;2022-12-18T11:04:21;99820.28;;;-6.14;80.56
75317;BME280;63913;51.492;10.368;2022-12-18T11:07:08;99828.59;;;-6.07;80.36
75317;BME280;63913;51.492;10.368;2022-12-18T11:09:39;99823.41;;;-6.01;80.15
75317;BME280;63913;51.492;10.368;2022-12-18T11:12:17;99823.31;;;-5.94;79.90
75317;BME280;63913;51.492;10.368;2022-12-18T11:14:50;99824.69;;;-5.89;79.78
75317;BME280;63913;51.492;10.368;2022-12-18T11:17:21;99809.25;;;-5.85;79.79
75317;BME280;63913;51.492;10.368;2022-12-18T11:19:57;99811.34;;;-5.81;79.67
75317;BME280;63913;51.492;10.368;2022-12-18T11:22:28;99791.81;;;-5.77;79.73
75317;BME280;63913;51.492;10.368;2022-12-18T11:24:57;99787.81;;;-5.74;79.19
75317;BME280;63913;51.492;10.368;2022-12-18T11:27:24;99783.88;;;-5.72;79.28
75317;BME280;63913;51.492;10.368;2022-12-18T11:29:50;99776.91;;;-5.75;79.04
75317;BME280;63913;51.492;10.368;2022-12-18T11:35:01;99788.63;;;-5.67;79.07
75317;BME280;63913;51.492;10.368;2022-12-18T11:37:28;99789.13;;;-5.62;78.95
75317;BME280;63913;51.492;10.368;2022-12-18T11:40:12;99780.63;;;-5.56;78.96
75317;BME280;63913;51.492;10.368;2022-12-18T11:42:52;99776.41;;;-5.48;78.51
75317;BME280;63913;51.492;10.368;2022-12-18T11:45:33;99770.44;;;-5.42;78.28
75317;BME280;63913;51.492;10.368;2022-12-18T11:53:12;99755.47;;;-5.33;78.14
75317;BME280;63913;51.492;10.368;2022-12-18T12:06:51;99737.91;;;-5.33;77.93
75317;BME280;63913;51.492;10.368;2022-12-18T12:09:42;99748.66;;;-5.34;77.81
75317;BME280;63913;51.492;10.368;2022-12-18T12:23:34;99727.63;;;-5.52;78.26
75317;BME280;63913;51.492;10.368;2022-12-18T12:25:45;99720.25;;;-5.50;78.17
75317;BME280;63913;51.492;10.368;2022-12-18T12:30:58;99713.53;;;-5.43;78.05
75317;BME280;63913;51.492;10.368;2022-12-18T12:33:34;99720.03;;;-5.45;77.71
75317;BME280;63913;51.492;10.368;2022-12-18T12:36:35;99704.56;;;-5.41;77.30
75317;BME280;63913;51.492;10.368;2022-12-18T12:39:10;99709.56;;;-5.41;77.20
75317;BME280;63913;51.492;10.368;2022-12-18T12:41:39;99702.22;;;-5.39;77.29
75317;BME280;63913;51.492;10.368;2022-12-18T12:44:32;99701.31;;;-5.40;77.24
75317;BME280;63913;51.492;10.368;2022-12-18T12:47:03;99687.91;;;-5.40;77.28
75317;BME280;63913;51.492;10.368;2022-12-18T12:49:31;99692.81;;;-5.33;76.97
75317;BME280;63913;51.492;10.368;2022-12-18T12:52:06;99685.00;;;-5.36;76.79
75317;BME280;63913;51.492;10.368;2022-12-18T12:54:33;99686.78;;;-5.35;76.66
75317;BME280;63913;51.492;10.368;2022-12-18T12:57:10;99669.38;;;-5.33;76.60
75317;BME280;63913;51.492;10.368;2022-12-18T12:59:39;99671.00;;;-5.34;76.62
75317;BME280;63913;51.492;10.368;2022-12-18T13:02:26;99669.81;;;-5.38;76.43
75317;BME280;63913;51.492;10.368;2022-12-18T13:04:58;99663.47;;;-5.34;76.04
75317;BME280;63913;51.492;10.368;2022-12-18T13:07:41;99656.56;;;-5.36;76.28
75317;BME280;63913;51.492;10.368;2022-12-18T13:13:19;99642.41;;;-5.36;76.38
75317;BME280;63913;51.492;10.368;2022-12-18T13:16:06;99654.16;;;-5.44;76.36
75317;BME280;63913;51.492;10.368;2022-12-18T13:18:32;99662.97;;;-5.47;76.17
75317;BME280;63913;51.492;10.368;2022-12-18T13:31:12;99661.34;;;-5.47;76.51
75317;BME280;63913;51.492;10.368;2022-12-18T13:33:43;99662.81;;;-5.49;76.54
75317;BME280;63913;51.492;10.368;2022-12-18T13:38:47;99657.63;;;-5.50;76.55
75317;BME280;63913;51.492;10.368;2022-12-18T13:43:46;99655.56;;;-5.54;76.72
75317;BME280;63913;51.492;10.368;2022-12-18T13:46:28;99659.84;;;-5.53;76.84
75317;BME280;63913;51.492;10.368;2022-12-18T13:49:05;99656.28;;;-5.55;76.68
75317;BME280;63913;51.492;10.368;2022-12-18T13:51:33;99657.72;;;-5.57;77.02
75317;BME280;63913;51.492;10.368;2022-12-18T13:54:17;99667.91;;;-5.56;76.72
75317;BME280;63913;51.492;10.368;2022-12-18T13:56:45;99668.81;;;-5.55;77.15
75317;BME280;63913;51.492;10.368;2022-12-18T13:59:23;99656.28;;;-5.55;77.09
75317;BME280;63913;51.492;10.368;2022-12-18T14:01:55;99659.50;;;-5.56;76.99
75317;BME280;63913;51.492;10.368;2022-12-18T14:04:27;99659.69;;;-5.55;76.95
75317;BME280;63913;51.492;10.368;2022-12-18T14:06:57;99648.78;;;-5.55;76.93
75317;BME280;63913;51.492;10.368;2022-12-18T14:09:29;99647.47;;;-5.52;77.17
75317;BME280;63913;51.492;10.368;2022-12-18T14:11:56;99649.22;;;-5.51;76.81
75317;BME280;63913;51.492;10.368;2022-12-18T14:14:47;99662.25;;;-5.46;77.00
75317;BME280;63913;51.492;10.368;2022-12-18T14:17:13;99666.34;;;-5.47;76.89
75317;BME280;63913;51.492;10.368;2022-12-18T14:19:48;99672.59;;;-5.43;76.77
75317;BME280;63913;51.492;10.368;2022-12-18T14:22:19;99660.47;;;-5.47;76.69
75317;BME280;63913;51.492;10.368;2022-12-18T14:24:47;99668.13;;;-5.46;76.91
75317;BME280;63913;51.492;10.368;2022-12-18T14:27:25;99670.31;;;-5.49;76.94
75317;BME280;63913;51.492;10.368;2022-12-18T14:29:51;99673.53;;;-5.50;76.81
75317;BME280;63913;51.492;10.368;2022-12-18T14:32:20;99674.16;;;-5.52;76.95
75317;BME280;63913;51.492;10.368;2022-12-18T14:37:12;99661.47;;;-5.54;77.06
75317;BME280;63913;51.492;10.368;2022-12-18T14:39:38;99658.78;;;-5.55;76.73
75317;BME280;63913;51.492;10.368;2022-12-18T14:42:03;99653.44;;;-5.58;77.17
75317;BME280;63913;51.492;10.368;2022-12-18T14:44:29;99634.19;;;-5.59;76.91